Time;durP1;ratioP1;P1;durP2;ratioP2;P2;SDS_P1;SDS_P2;PMS_P1;PMS_P2;Temp;Humidity;BMP_temperature;BMP_pressure;BME280_temperature;BME280_humidity;BME280_pressure;Samples;Min_cycle;Max_cycle;Signal;HPM_P1;HPM_P2
2023/03/03 00:01:05;;;;;;;29.83;23.50;;;5.00;99.90;;;;;;5076025;28;20227;-75
2023/03/03 00:03:33;;;;;;;36.55;26.80;;;5.10;99.90;;;;;;5078075;28;20200;-76
2023/03/03 00:06:05;;;;;;;29.15;22.55;;;5.10;99.90;;;;;;5078590;28;20252;-77
2023/03/03 00:08:33;;;;;;;32.80;25.15;;;5.10;99.90;;;;;;5077066;28;20194;-77
2023/03/03 00:11:06;;;;;;;32.33;24.15;;;5.10;99.90;;;;;;5076464;28;20218;-77
2023/03/03 00:13:44;;;;;;;30.23;25.00;;;5.10;99.90;;;;;;5076427;28;20212;-76
2023/03/03 00:16:24;;;;;;;33.60;24.83;;;5.10;99.90;;;;;;5069980;28;20601;-76
2023/03/03 00:18:54;;;;;;;35.75;24.55;;;5.10;99.90;;;;;;5073815;28;20477;-76
2023/03/03 00:21:32;;;;;;;32.72;25.10;;;5.10;99.90;;;;;;5069221;28;20240;-76
2023/03/03 00:24:15;;;;;;;34.92;25.17;;;5.00;99.90;;;;;;5076721;28;20301;-75
2023/03/03 00:26:45;;;;;;;27.85;22.15;;;4.90;99.90;;;;;;5072999;28;20231;-77
2023/03/03 00:29:35;;;;;;;32.05;24.45;;;4.90;99.90;;;;;;5073842;28;20767;-75
2023/03/03 00:32:23;;;;;;;32.13;24.17;;;4.90;99.90;;;;;;5076623;28;20200;-78
2023/03/03 00:34:52;;;;;;;32.83;25.05;;;4.90;99.90;;;;;;5059676;28;20197;-78
2023/03/03 00:37:29;;;;;;;23.92;21.02;;;4.90;99.90;;;;;;5072571;28;20198;-76
2023/03/03 00:40:19;;;;;;;33.70;24.33;;;4.80;99.90;;;;;;5071704;28;20200;-76
2023/03/03 00:42:51;;;;;;;32.58;24.00;;;4.80;99.90;;;;;;5076659;28;20213;-73
2023/03/03 00:45:31;;;;;;;31.13;25.25;;;4.80;99.90;;;;;;5075806;28;20362;-76
2023/03/03 00:48:07;;;;;;;33.03;24.90;;;4.80;99.90;;;;;;5075967;28;20205;-76
2023/03/03 00:50:36;;;;;;;28.70;23.92;;;4.80;99.90;;;;;;5074913;28;20680;-75
2023/03/03 00:53:10;;;;;;;30.92;22.73;;;4.80;99.90;;;;;;5075894;28;20205;-76
2023/03/03 00:55:39;;;;;;;29.75;24.45;;;4.70;99.90;;;;;;5074441;28;20265;-72
2023/03/03 00:58:07;;;;;;;32.03;25.92;;;4.70;99.90;;;;;;5075758;28;20754;-77
2023/03/03 01:00:36;;;;;;;31.40;23.52;;;4.70;99.90;;;;;;5078846;28;20200;-75
2023/03/03 01:03:06;;;;;;;29.33;22.58;;;4.70;99.90;;;;;;5079061;28;20331;-74
2023/03/03 01:05:35;;;;;;;34.83;24.77;;;4.60;99.90;;;;;;5079659;28;20255;-75
2023/03/03 01:08:03;;;;;;;31.13;23.85;;;4.60;99.90;;;;;;5075312;28;21096;-75
2023/03/03 01:10:36;;;;;;;30.52;24.92;;;4.50;99.90;;;;;;5082304;28;20274;-70
2023/03/03 01:13:06;;;;;;;34.47;26.40;;;4.50;99.90;;;;;;5077644;28;20184;-75
2023/03/03 01:15:34;;;;;;;34.67;25.40;;;4.50;99.90;;;;;;5060911;28;20276;-75
2023/03/03 01:18:02;;;;;;;29.27;24.05;;;4.40;99.90;;;;;;5076141;28;20199;-74
2023/03/03 01:20:31;;;;;;;33.17;23.55;;;4.30;99.90;;;;;;5076093;28;20224;-76
2023/03/03 01:22:59;;;;;;;33.28;24.95;;;4.30;99.90;;;;;;5081685;28;20213;-74
2023/03/03 01:25:27;;;;;;;34.28;25.77;;;4.30;99.90;;;;;;5079435;28;20214;-76
2023/03/03 01:27:57;;;;;;;31.02;23.67;;;4.20;99.90;;;;;;5079494;28;20198;-73
2023/03/03 01:30:26;;;;;;;28.75;24.02;;;4.30;99.90;;;;;;5075182;28;20237;-74
2023/03/03 01:32:54;;;;;;;33.95;24.13;;;4.30;99.90;;;;;;5076815;28;20202;-76
2023/03/03 01:35:23;;;;;;;28.50;23.40;;;4.30;99.90;;;;;;5059227;28;20252;-77
2023/03/03 01:37:51;;;;;;;33.80;24.73;;;4.30;99.90;;;;;;5057289;28;20200;-76
2023/03/03 01:40:22;;;;;;;30.10;24.30;;;4.30;99.90;;;;;;5073823;28;20825;-73
2023/03/03 01:42:51;;;;;;;38.42;25.52;;;4.20;99.90;;;;;;5076717;28;20276;-77
2023/03/03 01:45:23;;;;;;;34.05;25.30;;;4.10;99.90;;;;;;5069147;28;20224;-77
2023/03/03 01:47:58;;;;;;;32.63;23.25;;;4.10;99.90;;;;;;5078815;28;20205;-77
2023/03/03 01:50:38;;;;;;;32.42;23.15;;;4.10;99.90;;;;;;5074594;28;20781;-75
2023/03/03 01:53:13;;;;;;;27.45;22.13;;;4.20;99.90;;;;;;5077159;28;20196;-77
2023/03/03 01:55:42;;;;;;;33.53;23.73;;;4.20;99.90;;;;;;5081406;28;20234;-76
2023/03/03 01:58:14;;;;;;;32.10;23.48;;;4.10;99.90;;;;;;5083107;28;20199;-77
2023/03/03 02:00:49;;;;;;;33.70;25.02;;;3.90;99.90;;;;;;5065795;28;20202;-75
2023/03/03 02:03:20;;;;;;;30.92;23.83;;;3.90;99.90;;;;;;5078845;28;20691;-77
2023/03/03 02:05:50;;;;;;;33.97;26.80;;;3.90;99.90;;;;;;5078017;28;20277;-75
2023/03/03 02:08:25;;;;;;;30.08;24.30;;;3.80;99.90;;;;;;5079420;28;20665;-78
2023/03/03 02:10:54;;;;;;;37.50;24.00;;;3.90;99.90;;;;;;5087011;28;20248;-77
2023/03/03 02:13:22;;;;;;;36.40;25.40;;;3.90;99.90;;;;;;5061687;28;20186;-77
2023/03/03 02:15:52;;;;;;;37.00;24.73;;;3.80;99.90;;;;;;5080076;28;20252;-75
2023/03/03 02:18:21;;;;;;;28.48;22.83;;;3.70;99.90;;;;;;5078799;28;20210;-77
2023/03/03 02:20:57;;;;;;;32.78;24.08;;;3.70;99.90;;;;;;5084548;28;20919;-75
2023/03/03 02:23:34;;;;;;;32.97;24.65;;;3.70;99.90;;;;;;5081892;28;20216;-77
2023/03/03 02:26:07;;;;;;;35.10;23.73;;;3.70;99.90;;;;;;5063482;28;20259;-77
2023/03/03 02:28:37;;;;;;;32.13;23.58;;;3.80;99.90;;;;;;5063541;28;20215;-76
2023/03/03 02:31:09;;;;;;;28.58;23.17;;;3.80;99.90;;;;;;5082080;28;20199;-78
2023/03/03 02:33:38;;;;;;;31.83;23.52;;;3.80;99.90;;;;;;5085880;28;20197;-76
2023/03/03 02:36:06;;;;;;;33.03;23.42;;;3.70;99.90;;;;;;5082331;28;20788;-77
2023/03/03 02:38:41;;;;;;;32.15;24.38;;;3.60;99.90;;;;;;5084343;28;20205;-78
2023/03/03 02:41:16;;;;;;;34.85;24.40;;;3.70;99.90;;;;;;5064330;28;20202;-77
2023/03/03 02:43:51;;;;;;;35.20;24.58;;;3.80;99.90;;;;;;5084215;28;20238;-78
2023/03/03 02:46:19;;;;;;;33.75;24.80;;;3.80;99.90;;;;;;5078793;28;20222;-77
2023/03/03 09:43:14;;;;;;;36.77;27.20;;;11.20;92.40;;;;;;4889883;29;20490;-77
2023/03/03 09:45:54;;;;;;;33.00;24.40;;;11.50;93.80;;;;;;4873157;29;20468;-77
2023/03/03 09:48:45;;;;;;;35.23;26.30;;;11.40;92.80;;;;;;4872864;29;20509;-75
2023/03/03 09:51:33;;;;;;;33.90;25.47;;;11.30;91.60;;;;;;4890416;29;21051;-75
2023/03/03 09:54:23;;;;;;;33.53;25.97;;;11.90;93.70;;;;;;4885159;29;20459;-76
2023/03/03 09:56:56;;;;;;;29.30;24.67;;;12.20;95.90;;;;;;4885605;29;20499;-75
2023/03/03 09:59:42;;;;;;;30.33;25.33;;;13.30;99.20;;;;;;4888187;29;20514;-76
2023/03/03 10:02:35;;;;;;;31.20;24.37;;;13.30;99.90;;;;;;4866235;29;20818;-79
2023/03/03 10:05:20;;;;;;;32.50;26.60;;;13.30;97.40;;;;;;4887521;29;20547;-76
2023/03/03 10:07:58;;;;;;;31.73;25.93;;;13.80;97.70;;;;;;4888349;29;20478;-75
2023/03/03 10:10:47;;;;;;;39.63;24.90;;;13.50;95.20;;;;;;4892953;29;20458;-77
2023/03/03 10:13:26;;;;;;;35.50;26.10;;;13.20;93.50;;;;;;4888983;29;20883;-76
2023/03/03 10:16:13;;;;;;;33.70;26.00;;;13.40;94.60;;;;;;4892321;29;20454;-76
2023/03/03 10:18:48;;;;;;;31.73;24.93;;;13.30;93.50;;;;;;4891034;29;20505;-75
2023/03/03 10:21:24;;;;;;;33.90;25.67;;;13.10;91.30;;;;;;4883707;29;20514;-78
2023/03/03 10:23:55;;;;;;;34.47;27.43;;;13.00;91.10;;;;;;4888261;29;21052;-74
2023/03/03 10:26:56;;;;;;;38.23;25.37;;;12.90;91.80;;;;;;4884288;29;20534;-78
2023/03/03 10:29:46;;;;;;;33.13;26.80;;;12.80;89.80;;;;;;4886589;29;20469;-76
2023/03/03 10:32:54;;;;;;;39.00;25.23;;;12.90;90.00;;;;;;4884086;29;20478;-72
2023/03/03 10:35:39;;;;;;;32.37;26.23;;;12.60;91.40;;;;;;4850796;29;20544;-73
2023/03/03 10:38:25;;;;;;;31.23;25.00;;;14.10;94.30;;;;;;4885376;29;21537;-77
2023/03/03 10:40:59;;;;;;;31.33;25.40;;;15.60;98.20;;;;;;4895077;29;20975;-80
2023/03/03 10:44:00;;;;;;;28.33;24.90;;;14.70;89.20;;;;;;4890772;29;20557;-78
2023/03/03 10:46:48;;;;;;;33.50;25.40;;;13.90;76.70;;;;;;4889777;29;20471;-77
2023/03/03 10:49:32;;;;;;;32.43;25.27;;;13.30;72.10;;;;;;4889550;29;20522;-77
2023/03/03 10:52:22;;;;;;;31.37;26.33;;;13.20;90.50;;;;;;4891547;29;20546;-78
2023/03/03 10:55:18;;;;;;;32.57;25.50;;;13.40;90.10;;;;;;4889443;29;20969;-76
2023/03/03 10:57:55;;;;;;;31.20;24.73;;;13.60;89.90;;;;;;4887256;29;20529;-75
2023/03/03 11:00:27;;;;;;;28.80;25.50;;;15.30;99.90;;;;;;4890394;29;20457;-74
2023/03/03 11:03:22;;;;;;;27.43;24.43;;;17.20;99.90;;;;;;4891105;29;20470;-76
2023/03/03 11:05:56;;;;;;;30.77;27.27;;;19.00;99.90;;;;;;4888455;29;20545;-76
2023/03/03 11:08:30;;;;;;;29.40;26.23;;;21.40;99.90;;;;;;4894477;29;20556;-79
2023/03/03 11:11:07;;;;;;;29.67;26.10;;;22.50;99.90;;;;;;4892670;29;20907;-80
2023/03/03 11:13:45;;;;;;;28.40;25.70;;;22.80;99.90;;;;;;4892859;29;20471;-79
2023/03/03 11:16:27;;;;;;;29.43;26.30;;;24.10;99.90;;;;;;4893409;29;20461;-79
2023/03/03 11:19:06;;;;;;;27.60;24.70;;;24.70;99.90;;;;;;4888737;29;20459;-80
2023/03/03 11:21:45;;;;;;;28.60;25.60;;;24.40;99.90;;;;;;4889306;29;20964;-76
2023/03/03 11:24:28;;;;;;;29.80;26.80;;;23.60;99.90;;;;;;4890318;29;20475;-78
2023/03/03 11:27:17;;;;;;;27.93;25.17;;;24.40;99.90;;;;;;4888357;29;21027;-79
2023/03/03 11:30:02;;;;;;;29.17;24.83;;;22.70;99.90;;;;;;4885230;29;20462;-78
2023/03/03 11:32:41;;;;;;;26.47;23.90;;;20.00;95.90;;;;;;4887447;29;20451;-75
2023/03/03 11:35:21;;;;;;;26.00;23.23;;;18.20;76.60;;;;;;4887758;29;20474;-78
2023/03/03 11:37:59;;;;;;;24.93;22.60;;;17.10;78.50;;;;;;4887134;29;20480;-78
2023/03/03 11:40:32;;;;;;;24.00;21.70;;;16.20;51.50;;;;;;4883600;29;20481;-77
2023/03/03 11:43:10;;;;;;;25.73;23.03;;;15.50;44.70;;;;;;4890294;29;20550;-79
2023/03/03 11:45:43;;;;;;;28.87;23.37;;;15.00;39.30;;;;;;4883992;29;20466;-80
2023/03/03 11:48:18;;;;;;;30.73;23.60;;;14.60;51.60;;;;;;4890022;29;20518;-76
2023/03/03 11:50:55;;;;;;;25.60;23.10;;;14.20;33.20;;;;;;4872196;29;20468;-79
2023/03/03 11:53:33;;;;;;;26.40;23.63;;;13.90;33.20;;;;;;4882887;29;20830;-80
2023/03/03 11:56:14;;;;;;;31.48;25.50;;;13.50;29.30;;;;;;4868166;29;20461;-77
2023/03/03 11:58:49;;;;;;;27.70;23.23;;;13.00;25.60;;;;;;4888185;29;20208;-75
2023/03/03 12:01:22;;;;;;;26.33;23.50;;;12.80;25.70;;;;;;4885913;29;20829;-76
2023/03/03 12:03:58;;;;;;;24.37;21.80;;;12.70;25.70;;;;;;4881251;29;20481;-78
2023/03/03 12:06:40;;;;;;;26.80;23.90;;;12.70;39.20;;;;;;4882446;29;21042;-76
2023/03/03 12:09:23;;;;;;;27.03;23.17;;;12.60;27.10;;;;;;4889915;29;20966;-80
2023/03/03 12:11:56;;;;;;;30.30;24.67;;;12.70;28.40;;;;;;4883848;29;20466;-79
2023/03/03 12:14:50;;;;;;;29.03;23.00;;;12.50;27.30;;;;;;4888586;29;20551;-79
2023/03/03 12:17:38;;;;;;;26.90;23.00;;;12.60;28.10;;;;;;4889620;29;20614;-80
2023/03/03 12:20:15;;;;;;;26.33;23.60;;;12.70;29.30;;;;;;4889041;29;20530;-77
2023/03/03 12:22:52;;;;;;;25.13;22.47;;;12.70;30.10;;;;;;4886786;29;20462;-75
2023/03/03 12:25:39;;;;;;;28.10;22.70;;;12.70;29.90;;;;;;4891350;29;21380;-78
2023/03/03 12:28:11;;;;;;;27.67;23.13;;;12.70;32.00;;;;;;4888419;29;20481;-76
2023/03/03 12:31:05;;;;;;;26.20;23.47;;;12.70;30.50;;;;;;4894551;29;20488;-77
2023/03/03 12:33:48;;;;;;;24.67;22.07;;;12.70;31.40;;;;;;4885916;29;20453;-78
2023/03/03 12:36:29;;;;;;;23.83;21.37;;;12.70;31.20;;;;;;4888294;29;20978;-76
2023/03/03 12:39:03;;;;;;;25.33;22.80;;;12.70;32.00;;;;;;4888191;29;20831;-78
2023/03/03 12:41:37;;;;;;;25.93;22.10;;;12.70;31.80;;;;;;4893597;29;20502;-75
2023/03/03 12:44:15;;;;;;;28.40;23.20;;;12.60;30.60;;;;;;4868033;29;20484;-78
2023/03/03 12:46:50;;;;;;;24.30;21.80;;;12.60;31.00;;;;;;4888894;29;21155;-78
2023/03/03 12:49:19;;;;;;;24.57;22.07;;;12.70;31.40;;;;;;4891493;29;20460;-77
2023/03/03 12:52:08;;;;;;;24.57;22.07;;;12.70;32.20;;;;;;4891279;29;20459;-77
2023/03/03 12:54:56;;;;;;;24.90;22.23;;;12.70;30.90;;;;;;4887212;29;20535;-75
2023/03/03 12:57:35;;;;;;;23.40;20.97;;;12.70;32.50;;;;;;4888485;29;20587;-77
2023/03/03 13:00:27;;;;;;;23.13;20.90;;;12.80;34.30;;;;;;4890375;29;20459;-81
2023/03/03 13:03:03;;;;;;;25.00;20.63;;;12.90;34.50;;;;;;4885668;29;20514;-78
2023/03/03 13:05:40;;;;;;;25.83;21.20;;;12.90;33.90;;;;;;4886733;29;20556;-75
2023/03/03 13:08:28;;;;;;;24.97;22.27;;;12.90;34.50;;;;;;4885415;29;20488;-77
2023/03/03 13:11:07;;;;;;;22.33;19.97;;;12.90;34.30;;;;;;4888167;29;20455;-77
2023/03/03 13:13:42;;;;;;;22.07;19.70;;;13.10;35.70;;;;;;4889200;29;20478;-76
2023/03/03 13:16:12;;;;;;;25.47;21.40;;;13.20;37.00;;;;;;4890240;29;20468;-78
2023/03/03 13:18:53;;;;;;;22.97;20.10;;;13.00;34.60;;;;;;4885997;29;20500;-79
2023/03/03 13:21:27;;;;;;;22.03;19.60;;;13.10;33.90;;;;;;4887289;29;20443;-78
2023/03/03 13:24:02;;;;;;;24.10;20.50;;;13.00;33.10;;;;;;4885763;29;20459;-77
2023/03/03 13:26:34;;;;;;;23.00;20.60;;;13.10;36.60;;;;;;4886285;29;20538;-76
2023/03/03 13:29:15;;;;;;;23.50;20.80;;;13.10;35.10;;;;;;4891956;29;20455;-78
2023/03/03 13:31:48;;;;;;;24.30;20.83;;;13.10;35.10;;;;;;4891861;29;20464;-77
2023/03/03 13:34:27;;;;;;;23.13;20.43;;;13.20;36.60;;;;;;4888547;29;20480;-76
2023/03/03 13:37:02;;;;;;;24.73;20.33;;;13.30;39.10;;;;;;4868413;29;20486;-77
2023/03/03 13:39:33;;;;;;;22.37;20.03;;;13.30;38.70;;;;;;4891744;29;20847;-78
2023/03/03 13:42:04;;;;;;;28.20;21.63;;;13.40;39.70;;;;;;4868195;29;20460;-79
2023/03/03 13:44:39;;;;;;;22.40;19.53;;;13.40;37.50;;;;;;4890884;29;20488;-77
2023/03/03 13:47:16;;;;;;;23.97;21.33;;;13.20;34.30;;;;;;4882520;29;20594;-77
2023/03/03 13:49:57;;;;;;;23.03;20.80;;;13.20;36.20;;;;;;4889978;29;20455;-79
2023/03/03 13:52:28;;;;;;;24.90;21.10;;;13.30;38.80;;;;;;4889118;29;20625;-77
2023/03/03 13:55:10;;;;;;;26.57;21.40;;;13.30;36.80;;;;;;4891432;29;20451;-77
2023/03/03 13:57:51;;;;;;;24.40;21.87;;;13.30;36.40;;;;;;4893540;29;20570;-76
2023/03/03 14:00:30;;;;;;;22.93;20.60;;;13.30;38.10;;;;;;4893723;29;20999;-77
2023/03/03 14:03:40;;;;;;;23.30;20.90;;;13.40;39.60;;;;;;4894925;29;20469;-77
2023/03/03 14:06:15;;;;;;;22.43;20.13;;;13.40;39.10;;;;;;4889003;29;20479;-77
2023/03/03 14:09:06;;;;;;;30.33;21.13;;;13.40;40.00;;;;;;4895315;29;20488;-76
2023/03/03 14:11:42;;;;;;;21.17;18.90;;;13.40;36.50;;;;;;4893449;29;21008;-76
2023/03/03 14:14:21;;;;;;;23.80;21.20;;;13.30;37.20;;;;;;4891309;29;21054;-77
2023/03/03 14:16:56;;;;;;;23.27;20.77;;;13.30;36.80;;;;;;4895050;29;20476;-76
2023/03/03 14:19:29;;;;;;;23.83;20.80;;;13.30;34.90;;;;;;4895940;29;20469;-79
2023/03/03 14:22:06;;;;;;;27.80;19.60;;;13.30;35.90;;;;;;4891882;29;20560;-75
2023/03/03 14:24:58;;;;;;;23.67;19.90;;;13.20;35.50;;;;;;4895645;29;21018;-77
2023/03/03 14:27:33;;;;;;;26.23;21.30;;;13.10;33.90;;;;;;4893411;29;20567;-76
2023/03/03 14:30:29;;;;;;;24.13;21.00;;;13.10;33.80;;;;;;4893721;29;20516;-76
2023/03/03 14:33:20;;;;;;;23.73;21.17;;;13.00;33.00;;;;;;4877576;29;20456;-75
2023/03/03 14:36:02;;;;;;;23.80;20.77;;;13.10;33.70;;;;;;4891609;29;20459;-80
2023/03/03 14:38:44;;;;;;;24.97;20.00;;;13.00;31.80;;;;;;4892426;29;21027;-78
2023/03/03 14:41:19;;;;;;;25.13;21.40;;;13.10;34.30;;;;;;4889141;29;20454;-77
2023/03/03 14:43:57;;;;;;;24.57;20.53;;;13.10;32.80;;;;;;4879663;29;20457;-79
2023/03/03 14:46:38;;;;;;;26.57;21.67;;;13.00;45.00;;;;;;4893290;29;20490;-75
2023/03/03 14:49:18;;;;;;;24.27;21.67;;;13.00;31.30;;;;;;4890974;29;20546;-79
2023/03/03 14:51:48;;;;;;;22.90;20.20;;;12.90;30.90;;;;;;4898531;29;20466;-80
2023/03/03 14:54:24;;;;;;;25.60;21.40;;;12.90;31.40;;;;;;4891420;29;20456;-78
2023/03/03 14:57:01;;;;;;;22.63;20.20;;;12.90;30.80;;;;;;4899937;29;21003;-78
2023/03/03 14:59:30;;;;;;;25.30;21.80;;;12.90;31.50;;;;;;4893072;29;20472;-77
2023/03/03 15:02:28;;;;;;;26.13;20.83;;;12.90;30.60;;;;;;4890320;29;20464;-78
2023/03/03 15:05:18;;;;;;;22.77;19.70;;;12.70;28.80;;;;;;4890576;29;21380;-77
2023/03/03 15:07:48;;;;;;;27.20;21.47;;;12.60;27.90;;;;;;4890371;29;20493;-78
2023/03/03 15:10:28;;;;;;;26.33;20.73;;;12.40;26.80;;;;;;4891585;29;21367;-77
2023/03/03 15:12:57;;;;;;;23.07;20.57;;;12.50;26.80;;;;;;4887049;29;20456;-82
2023/03/03 15:15:28;;;;;;;26.20;20.77;;;12.40;27.70;;;;;;4894828;29;20442;-78
2023/03/03 15:17:59;;;;;;;24.10;20.20;;;12.50;27.80;;;;;;4892083;29;20463;-82
2023/03/03 15:20:38;;;;;;;22.77;19.67;;;12.50;27.40;;;;;;4888552;29;20471;-77
2023/03/03 15:23:25;;;;;;;29.43;23.03;;;12.40;26.60;;;;;;4873102;29;20833;-79
2023/03/03 15:25:59;;;;;;;24.03;21.47;;;12.30;25.80;;;;;;4891588;29;20483;-78
2023/03/03 15:28:36;;;;;;;24.40;21.73;;;12.30;27.00;;;;;;4890484;29;20573;-78
2023/03/03 15:31:13;;;;;;;24.47;19.70;;;12.30;26.10;;;;;;4872320;29;20482;-76
2023/03/03 15:33:52;;;;;;;27.00;21.20;;;12.30;26.80;;;;;;4890751;29;20451;-77
2023/03/03 15:36:34;;;;;;;25.40;21.37;;;12.30;27.30;;;;;;4891542;29;20451;-78
2023/03/03 15:39:16;;;;;;;25.30;20.67;;;12.30;26.70;;;;;;4889591;29;20541;-80
2023/03/03 15:41:48;;;;;;;25.97;22.60;;;12.30;26.40;;;;;;4889803;29;20455;-77
2023/03/03 15:44:26;;;;;;;26.80;20.50;;;12.20;26.20;;;;;;4875410;29;20481;-79
2023/03/03 15:47:11;;;;;;;28.50;24.98;;;12.10;25.30;;;;;;4886494;29;20467;-73
2023/03/03 15:50:15;;;;;;;26.10;22.03;;;11.90;24.50;;;;;;4889859;29;20717;-78
2023/03/03 15:53:01;;;;;;;30.77;22.70;;;12.10;25.80;;;;;;4879303;29;20490;-76
2023/03/03 15:55:43;;;;;;;24.00;19.40;;;12.00;18.80;;;;;;4888418;29;20448;-77
2023/03/03 15:58:42;;;;;;;25.63;21.00;;;11.90;18.10;;;;;;4881899;29;20491;-77
2023/03/03 16:01:23;;;;;;;27.07;22.90;;;12.00;19.30;;;;;;4890336;29;20458;-78
2023/03/03 16:03:57;;;;;;;24.37;21.53;;;11.90;18.60;;;;;;4890045;29;20473;-83
2023/03/03 16:06:37;;;;;;;27.90;22.73;;;11.80;18.30;;;;;;4873909;29;20560;-76
2023/03/03 16:09:23;;;;;;;24.63;22.00;;;11.70;21.20;;;;;;4888129;29;20560;-80
2023/03/03 16:11:54;;;;;;;26.63;22.87;;;11.60;17.00;;;;;;4881738;29;20599;-79
2023/03/03 16:14:47;;;;;;;28.20;23.20;;;11.60;18.00;;;;;;4891233;29;20454;-78
2023/03/03 16:17:26;;;;;;;28.60;23.83;;;11.50;16.40;;;;;;4887075;29;20471;-77
2023/03/03 16:20:04;;;;;;;28.20;23.33;;;11.60;16.70;;;;;;4890980;29;20457;-76
2023/03/03 16:22:57;;;;;;;26.03;22.10;;;11.50;16.10;;;;;;4891951;29;20557;-78
2023/03/03 16:25:45;;;;;;;29.00;22.67;;;11.30;15.50;;;;;;4890288;29;20669;-77
2023/03/03 16:28:19;;;;;;;25.37;21.90;;;11.30;16.00;;;;;;4883536;29;20510;-79
2023/03/03 16:30:56;;;;;;;28.60;24.00;;;11.30;16.20;;;;;;4889952;29;20447;-77
2023/03/03 16:33:32;;;;;;;31.77;24.20;;;11.30;16.30;;;;;;4880487;29;20470;-82
2023/03/03 16:36:06;;;;;;;29.60;22.77;;;11.20;15.50;;;;;;4888120;29;20462;-76
2023/03/03 16:38:38;;;;;;;24.10;21.67;;;11.10;14.60;;;;;;4885029;29;21032;-78
2023/03/03 16:41:13;;;;;;;25.60;22.77;;;11.00;14.10;;;;;;4891050;29;20520;-78
2023/03/03 16:43:51;;;;;;;30.50;23.60;;;10.90;13.60;;;;;;4883300;29;20463;-78
2023/03/03 16:46:31;;;;;;;29.53;23.00;;;10.90;13.90;;;;;;4884767;29;20490;-83
2023/03/03 16:49:06;;;;;;;30.17;23.10;;;10.80;13.80;;;;;;4883094;29;20469;-76
2023/03/03 16:51:45;;;;;;;30.73;23.43;;;10.80;14.00;;;;;;4891707;29;20462;-77
2023/03/03 16:54:20;;;;;;;32.13;23.13;;;10.70;13.70;;;;;;4888092;29;20442;-78
2023/03/03 16:57:00;;;;;;;30.00;22.77;;;10.60;25.10;;;;;;4885882;29;20515;-77
2023/03/03 16:59:39;;;;;;;28.43;23.57;;;10.60;13.60;;;;;;4890495;29;20462;-78
2023/03/03 17:02:26;;;;;;;29.43;23.03;;;10.50;13.50;;;;;;4886013;29;20465;-78
2023/03/03 17:05:01;;;;;;;33.60;24.97;;;10.50;13.60;;;;;;4872647;29;20454;-78
2023/03/03 17:07:42;;;;;;;33.77;27.60;;;10.40;13.10;;;;;;4890532;29;20493;-76
2023/03/03 17:10:24;;;;;;;32.93;24.03;;;10.30;12.40;;;;;;4892842;29;20473;-76
2023/03/03 17:13:27;;;;;;;31.70;23.90;;;10.20;11.10;;;;;;4888142;29;20457;-76
2023/03/03 17:16:08;;;;;;;30.13;22.57;;;10.00;10.70;;;;;;4852715;29;20485;-79
2023/03/03 17:18:45;;;;;;;31.23;23.00;;;10.00;10.40;;;;;;4888957;29;20998;-79
2023/03/03 17:21:24;;;;;;;26.73;23.10;;;9.90;10.70;;;;;;4876040;29;20492;-78
2023/03/03 17:24:02;;;;;;;31.30;21.90;;;9.90;11.90;;;;;;4885545;29;20467;-78
2023/03/03 17:26:40;;;;;;;30.60;22.60;;;9.70;10.60;;;;;;4884898;29;20505;-77
2023/03/03 17:29:21;;;;;;;28.53;21.60;;;9.60;10.50;;;;;;4890953;29;20528;-76
2023/03/03 17:31:58;;;;;;;25.67;21.90;;;9.50;10.90;;;;;;4895079;29;20485;-77
2023/03/03 17:34:36;;;;;;;27.47;21.47;;;9.40;11.20;;;;;;4874764;29;20456;-80
2023/03/03 17:37:18;;;;;;;27.33;21.87;;;9.30;20.70;;;;;;4888020;29;20482;-78
2023/03/03 17:40:12;;;;;;;28.50;21.60;;;9.20;10.30;;;;;;4893090;29;20450;-77
2023/03/03 17:42:46;;;;;;;32.47;22.67;;;9.10;9.70;;;;;;4891788;29;20865;-78
2023/03/03 17:45:17;;;;;;;28.70;22.90;;;9.10;11.30;;;;;;4890245;29;20459;-77
2023/03/03 17:48:03;;;;;;;29.83;24.23;;;9.00;22.50;;;;;;4894753;29;20500;-77
2023/03/03 17:50:52;;;;;;;34.20;24.40;;;9.00;11.50;;;;;;4898242;29;20554;-77
2023/03/03 17:53:37;;;;;;;35.40;23.53;;;8.90;11.20;;;;;;4892952;29;20458;-77
2023/03/03 17:56:17;;;;;;;28.23;23.40;;;8.80;10.60;;;;;;4890092;29;20456;-74
2023/03/03 17:59:04;;;;;;;31.30;24.60;;;8.80;11.30;;;;;;4896600;29;20544;-78
2023/03/03 18:02:04;;;;;;;33.67;23.40;;;8.70;12.00;;;;;;4888539;29;20445;-79
2023/03/03 18:05:04;;;;;;;30.80;24.20;;;8.70;11.90;;;;;;4846484;29;20464;-77
2023/03/03 18:07:43;;;;;;;30.77;21.40;;;8.70;13.10;;;;;;4895457;29;20480;-72
2023/03/03 18:10:59;;;;;;;28.03;21.10;;;8.70;14.00;;;;;;4894149;29;20456;-78
2023/03/03 18:13:48;;;;;;;31.17;21.67;;;8.70;14.20;;;;;;4868988;29;20546;-76
2023/03/03 18:16:29;;;;;;;30.33;22.77;;;8.50;13.60;;;;;;4892200;29;20465;-75
2023/03/03 18:19:18;;;;;;;29.37;22.87;;;8.40;12.90;;;;;;4875848;29;20838;-77
2023/03/03 18:21:55;;;;;;;27.77;22.43;;;8.30;12.20;;;;;;4894193;29;20445;-75
2023/03/03 18:24:30;;;;;;;28.83;23.30;;;8.20;12.40;;;;;;4891393;29;20998;-76
2023/03/03 18:27:27;;;;;;;28.33;22.13;;;8.10;13.30;;;;;;4871477;29;20540;-77
2023/03/03 18:30:20;;;;;;;29.03;20.80;;;7.90;13.30;;;;;;4889388;29;21037;-76
2023/03/03 18:33:07;;;;;;;30.33;22.10;;;7.90;14.10;;;;;;4883707;29;20449;-75
2023/03/03 18:35:39;;;;;;;31.10;22.63;;;7.90;13.70;;;;;;4889385;29;20464;-76
2023/03/03 18:38:41;;;;;;;30.30;23.67;;;7.90;15.90;;;;;;4885169;29;20483;-77
2023/03/03 18:41:11;;;;;;;30.13;23.03;;;7.80;16.00;;;;;;4887236;29;20468;-80
2023/03/03 18:44:00;;;;;;;30.03;21.80;;;7.90;16.70;;;;;;4873837;29;20461;-76
2023/03/03 18:46:52;;;;;;;35.50;24.07;;;7.90;17.30;;;;;;4889867;29;20480;-73
2023/03/03 18:50:04;;;;;;;35.27;24.60;;;7.90;18.00;;;;;;4887021;29;20825;-73
2023/03/03 18:52:35;;;;;;;29.03;20.90;;;7.90;18.30;;;;;;4889649;29;20483;-73
2023/03/03 18:55:26;;;;;;;28.13;21.53;;;7.80;18.00;;;;;;4894103;29;20469;-76
2023/03/03 18:58:32;;;;;;;30.80;21.90;;;7.70;17.60;;;;;;4889031;29;21082;-75
2023/03/03 19:01:14;;;;;;;34.97;24.47;;;7.60;18.30;;;;;;4887010;29;20476;-75
2023/03/03 19:04:03;;;;;;;32.33;27.67;;;7.60;19.60;;;;;;4891066;29;20498;-75
2023/03/03 19:06:52;;;;;;;32.53;26.67;;;7.40;20.40;;;;;;4882175;29;20251;-76
2023/03/03 19:09:49;;;;;;;33.07;24.20;;;7.70;22.60;;;;;;4889532;29;20960;-74
2023/03/03 19:12:18;;;;;;;31.83;23.67;;;7.70;23.60;;;;;;4886901;29;20463;-76
2023/03/03 19:14:47;;;;;;;34.70;25.07;;;7.70;25.80;;;;;;4894354;29;20453;-75
2023/03/03 19:17:48;;;;;;;31.50;23.90;;;7.70;27.20;;;;;;4886612;29;20521;-78
2023/03/03 19:20:17;;;;;;;33.87;24.57;;;7.60;27.80;;;;;;4888004;29;20480;-75
2023/03/03 19:22:48;;;;;;;50.17;35.83;;;7.60;29.80;;;;;;4897713;29;20578;-76
2023/03/03 19:25:24;;;;;;;37.60;25.80;;;7.50;29.80;;;;;;4894517;29;20477;-76
2023/03/03 19:28:05;;;;;;;32.07;24.70;;;7.50;30.20;;;;;;4897193;29;20548;-75
2023/03/03 19:30:45;;;;;;;33.17;24.93;;;7.40;30.30;;;;;;4894249;29;20452;-76
2023/03/03 19:33:30;;;;;;;36.47;24.33;;;7.30;30.90;;;;;;4888375;29;20465;-76
2023/03/03 19:36:10;;;;;;;33.67;25.37;;;7.30;32.60;;;;;;4888614;29;21004;-77
2023/03/03 19:38:47;;;;;;;30.30;24.10;;;7.30;33.40;;;;;;4890841;29;20596;-74
2023/03/03 19:41:28;;;;;;;33.40;23.30;;;7.30;33.00;;;;;;4888071;29;20558;-75
2023/03/03 19:44:07;;;;;;;30.63;24.53;;;7.10;33.20;;;;;;4878350;29;20466;-78
2023/03/03 19:46:58;;;;;;;35.53;25.53;;;7.10;34.90;;;;;;4888842;29;20535;-75
2023/03/03 19:49:56;;;;;;;34.87;26.00;;;7.10;36.50;;;;;;4892566;29;20514;-74
2023/03/03 19:52:35;;;;;;;40.80;27.10;;;7.10;37.30;;;;;;4881864;29;20495;-78
2023/03/03 19:55:22;;;;;;;36.20;28.17;;;7.10;38.00;;;;;;4891172;29;20456;-76
2023/03/03 19:58:06;;;;;;;35.30;26.43;;;7.00;39.50;;;;;;4887418;29;20471;-82
2023/03/03 20:00:41;;;;;;;38.50;26.80;;;7.10;39.30;;;;;;4889426;29;20479;-77
2023/03/03 20:03:44;;;;;;;42.83;27.40;;;7.00;40.50;;;;;;4894355;29;20515;-76
2023/03/03 20:06:25;;;;;;;40.37;27.00;;;6.90;40.90;;;;;;4896616;29;20448;-75
2023/03/03 20:09:01;;;;;;;41.07;26.90;;;6.90;41.90;;;;;;4889163;29;20474;-75
2023/03/03 20:11:47;;;;;;;40.17;28.50;;;6.80;43.30;;;;;;4889795;29;20461;-72
2023/03/03 20:14:43;;;;;;;38.70;28.37;;;6.90;43.50;;;;;;4885424;29;20460;-77
2023/03/03 20:17:36;;;;;;;35.97;26.97;;;6.80;44.70;;;;;;4889507;29;20495;-76
2023/03/03 20:20:20;;;;;;;40.73;27.70;;;6.90;45.80;;;;;;4869234;29;20487;-73
2023/03/03 20:22:56;;;;;;;41.97;27.80;;;6.80;47.10;;;;;;4891129;29;20470;-73
2023/03/03 20:25:29;;;;;;;45.17;29.20;;;6.80;49.70;;;;;;4887531;29;20459;-72
2023/03/03 20:28:05;;;;;;;39.43;29.47;;;6.80;50.60;;;;;;4891117;29;20977;-74